sensor_id;sensor_type;location;lat;lon;timestamp;P1;durP1;ratioP1;P2;durP2;ratioP2
73900;SDS011;62235;52.160;7.526;2023-05-17T00:02:05;5.38;;;2.03;;
73900;SDS011;62235;52.160;7.526;2023-05-17T00:04:30;6.85;;;2.38;;
73900;SDS011;62235;52.160;7.526;2023-05-17T00:06:57;10.77;;;2.00;;
73900;SDS011;62235;52.160;7.526;2023-05-17T00:09:22;3.72;;;1.08;;
73900;SDS011;62235;52.160;7.526;2023-05-17T00:11:47;5.57;;;1.77;;
73900;SDS011;62235;52.160;7.526;2023-05-17T00:14:13;6.93;;;1.93;;
73900;SDS011;62235;52.160;7.526;2023-05-17T00:16:38;3.97;;;1.27;;
73900;SDS011;62235;52.160;7.526;2023-05-17T00:19:03;6.95;;;1.60;;
73900;SDS011;62235;52.160;7.526;2023-05-17T00:21:29;6.53;;;1.93;;
73900;SDS011;62235;52.160;7.526;2023-05-17T00:23:55;4.30;;;1.15;;
73900;SDS011;62235;52.160;7.526;2023-05-17T00:26:20;4.73;;;1.00;;
73900;SDS011;62235;52.160;7.526;2023-05-17T00:28:45;4.85;;;2.03;;
73900;SDS011;62235;52.160;7.526;2023-05-17T00:31:11;9.30;;;1.80;;
73900;SDS011;62235;52.160;7.526;2023-05-17T00:33:36;5.93;;;1.40;;
73900;SDS011;62235;52.160;7.526;2023-05-17T00:36:01;6.05;;;1.60;;
73900;SDS011;62235;52.160;7.526;2023-05-17T00:38:27;9.40;;;2.25;;
73900;SDS011;62235;52.160;7.526;2023-05-17T00:40:53;3.58;;;1.30;;
73900;SDS011;62235;52.160;7.526;2023-05-17T00:43:18;2.53;;;1.20;;
73900;SDS011;62235;52.160;7.526;2023-05-17T00:45:43;9.03;;;1.90;;
73900;SDS011;62235;52.160;7.526;2023-05-17T00:48:09;4.53;;;1.90;;
73900;SDS011;62235;52.160;7.526;2023-05-17T00:50:35;7.13;;;1.73;;
73900;SDS011;62235;52.160;7.526;2023-05-17T00:53:00;17.85;;;2.97;;
73900;SDS011;62235;52.160;7.526;2023-05-17T00:55:25;8.25;;;2.10;;
73900;SDS011;62235;52.160;7.526;2023-05-17T00:57:51;8.00;;;2.35;;
73900;SDS011;62235;52.160;7.526;2023-05-17T01:00:17;9.27;;;2.17;;
73900;SDS011;62235;52.160;7.526;2023-05-17T01:02:42;9.63;;;2.28;;
73900;SDS011;62235;52.160;7.526;2023-05-17T01:05:08;19.77;;;1.77;;
73900;SDS011;62235;52.160;7.526;2023-05-17T01:07:34;3.75;;;1.35;;
73900;SDS011;62235;52.160;7.526;2023-05-17T01:09:59;8.10;;;2.20;;
73900;SDS011;62235;52.160;7.526;2023-05-17T01:20:13;2.67;;;1.05;;
73900;SDS011;62235;52.160;7.526;2023-05-17T01:22:45;5.38;;;1.23;;
73900;SDS011;62235;52.160;7.526;2023-05-17T01:28:01;4.45;;;1.20;;
73900;SDS011;62235;52.160;7.526;2023-05-17T01:30:27;3.95;;;1.33;;
73900;SDS011;62235;52.160;7.526;2023-05-17T01:32:54;3.17;;;1.13;;
73900;SDS011;62235;52.160;7.526;2023-05-17T01:35:21;6.90;;;1.65;;
73900;SDS011;62235;52.160;7.526;2023-05-17T01:37:46;7.83;;;1.60;;
73900;SDS011;62235;52.160;7.526;2023-05-17T01:40:12;4.93;;;2.07;;
73900;SDS011;62235;52.160;7.526;2023-05-17T01:42:37;7.43;;;2.10;;
73900;SDS011;62235;52.160;7.526;2023-05-17T01:47:35;6.40;;;1.45;;
73900;SDS011;62235;52.160;7.526;2023-05-17T01:50:05;7.63;;;2.08;;
73900;SDS011;62235;52.160;7.526;2023-05-17T01:52:37;9.00;;;1.70;;
73900;SDS011;62235;52.160;7.526;2023-05-17T01:55:13;1.75;;;0.43;;
73900;SDS011;62235;52.160;7.526;2023-05-17T01:57:40;5.68;;;1.80;;
73900;SDS011;62235;52.160;7.526;2023-05-17T02:00:07;7.97;;;2.58;;
73900;SDS011;62235;52.160;7.526;2023-05-17T02:02:33;3.38;;;1.13;;
73900;SDS011;62235;52.160;7.526;2023-05-17T02:04:59;6.05;;;1.65;;
73900;SDS011;62235;52.160;7.526;2023-05-17T02:07:25;8.13;;;1.95;;
73900;SDS011;62235;52.160;7.526;2023-05-17T02:09:50;3.42;;;1.63;;
73900;SDS011;62235;52.160;7.526;2023-05-17T02:12:15;6.60;;;1.73;;
73900;SDS011;62235;52.160;7.526;2023-05-17T02:14:41;7.13;;;1.93;;
73900;SDS011;62235;52.160;7.526;2023-05-17T02:17:06;6.57;;;1.47;;
73900;SDS011;62235;52.160;7.526;2023-05-17T02:19:31;13.57;;;2.30;;
73900;SDS011;62235;52.160;7.526;2023-05-17T02:21:57;5.90;;;2.03;;
73900;SDS011;62235;52.160;7.526;2023-05-17T02:24:22;7.43;;;1.50;;
73900;SDS011;62235;52.160;7.526;2023-05-17T02:26:48;13.73;;;1.95;;
73900;SDS011;62235;52.160;7.526;2023-05-17T02:29:13;2.90;;;1.38;;
73900;SDS011;62235;52.160;7.526;2023-05-17T02:31:39;6.70;;;1.63;;
73900;SDS011;62235;52.160;7.526;2023-05-17T02:34:04;3.10;;;1.27;;
73900;SDS011;62235;52.160;7.526;2023-05-17T02:36:30;10.93;;;2.23;;
73900;SDS011;62235;52.160;7.526;2023-05-17T02:38:56;7.18;;;2.13;;
73900;SDS011;62235;52.160;7.526;2023-05-17T02:41:21;5.83;;;2.20;;
73900;SDS011;62235;52.160;7.526;2023-05-17T02:43:46;7.07;;;1.70;;
73900;SDS011;62235;52.160;7.526;2023-05-17T02:46:12;6.27;;;1.63;;
73900;SDS011;62235;52.160;7.526;2023-05-17T02:48:37;4.80;;;1.23;;
73900;SDS011;62235;52.160;7.526;2023-05-17T02:51:02;16.83;;;2.70;;
73900;SDS011;62235;52.160;7.526;2023-05-17T02:53:28;5.38;;;2.17;;
73900;SDS011;62235;52.160;7.526;2023-05-17T02:55:53;12.83;;;2.30;;
73900;SDS011;62235;52.160;7.526;2023-05-17T02:58:22;8.70;;;2.17;;
73900;SDS011;62235;52.160;7.526;2023-05-17T03:00:50;11.15;;;2.72;;
73900;SDS011;62235;52.160;7.526;2023-05-17T03:03:15;6.57;;;2.20;;
73900;SDS011;62235;52.160;7.526;2023-05-17T03:05:41;12.05;;;3.00;;
73900;SDS011;62235;52.160;7.526;2023-05-17T03:08:06;7.77;;;2.30;;
73900;SDS011;62235;52.160;7.526;2023-05-17T03:10:32;8.32;;;2.45;;
73900;SDS011;62235;52.160;7.526;2023-05-17T03:12:57;6.57;;;2.22;;
73900;SDS011;62235;52.160;7.526;2023-05-17T03:15:22;8.07;;;2.30;;
73900;SDS011;62235;52.160;7.526;2023-05-17T03:17:50;12.43;;;2.97;;
73900;SDS011;62235;52.160;7.526;2023-05-17T03:20:15;11.63;;;2.72;;
73900;SDS011;62235;52.160;7.526;2023-05-17T03:22:41;14.30;;;2.55;;
73900;SDS011;62235;52.160;7.526;2023-05-17T03:25:06;10.47;;;2.30;;
73900;SDS011;62235;52.160;7.526;2023-05-17T03:27:32;8.52;;;2.80;;
73900;SDS011;62235;52.160;7.526;2023-05-17T03:29:57;11.75;;;2.42;;
73900;SDS011;62235;52.160;7.526;2023-05-17T03:32:23;8.57;;;2.70;;
73900;SDS011;62235;52.160;7.526;2023-05-17T03:34:48;8.50;;;2.00;;
73900;SDS011;62235;52.160;7.526;2023-05-17T03:37:13;13.02;;;2.88;;
73900;SDS011;62235;52.160;7.526;2023-05-17T03:39:39;15.03;;;3.47;;
73900;SDS011;62235;52.160;7.526;2023-05-17T03:42:04;12.48;;;2.47;;
73900;SDS011;62235;52.160;7.526;2023-05-17T03:44:30;9.82;;;2.63;;
73900;SDS011;62235;52.160;7.526;2023-05-17T03:46:55;8.97;;;2.50;;
73900;SDS011;62235;52.160;7.526;2023-05-17T03:49:20;15.13;;;2.95;;
73900;SDS011;62235;52.160;7.526;2023-05-17T03:51:46;13.60;;;3.27;;
73900;SDS011;62235;52.160;7.526;2023-05-17T03:54:11;11.70;;;2.73;;
73900;SDS011;62235;52.160;7.526;2023-05-17T03:56:36;9.20;;;2.70;;
73900;SDS011;62235;52.160;7.526;2023-05-17T03:59:01;8.60;;;2.30;;
73900;SDS011;62235;52.160;7.526;2023-05-17T04:01:27;9.68;;;2.75;;
73900;SDS011;62235;52.160;7.526;2023-05-17T04:03:52;15.20;;;3.57;;
73900;SDS011;62235;52.160;7.526;2023-05-17T04:06:18;9.80;;;3.17;;
73900;SDS011;62235;52.160;7.526;2023-05-17T04:08:43;7.67;;;2.73;;
73900;SDS011;62235;52.160;7.526;2023-05-17T04:11:08;10.75;;;2.60;;
73900;SDS011;62235;52.160;7.526;2023-05-17T04:13:36;8.50;;;3.05;;
73900;SDS011;62235;52.160;7.526;2023-05-17T04:16:02;9.17;;;2.40;;
73900;SDS011;62235;52.160;7.526;2023-05-17T04:18:27;2.95;;;1.52;;
73900;SDS011;62235;52.160;7.526;2023-05-17T04:20:56;9.75;;;2.53;;
73900;SDS011;62235;52.160;7.526;2023-05-17T04:23:21;10.00;;;2.67;;
73900;SDS011;62235;52.160;7.526;2023-05-17T04:25:46;12.67;;;2.60;;
73900;SDS011;62235;52.160;7.526;2023-05-17T04:28:12;9.47;;;2.87;;
73900;SDS011;62235;52.160;7.526;2023-05-17T04:30:43;6.30;;;2.13;;
73900;SDS011;62235;52.160;7.526;2023-05-17T04:33:09;10.88;;;2.80;;
73900;SDS011;62235;52.160;7.526;2023-05-17T04:35:36;13.00;;;2.70;;
73900;SDS011;62235;52.160;7.526;2023-05-17T04:38:02;8.93;;;2.47;;
73900;SDS011;62235;52.160;7.526;2023-05-17T04:40:27;4.60;;;1.37;;
73900;SDS011;62235;52.160;7.526;2023-05-17T04:42:52;2.60;;;0.93;;
73900;SDS011;62235;52.160;7.526;2023-05-17T04:45:18;9.77;;;2.30;;
73900;SDS011;62235;52.160;7.526;2023-05-17T04:47:43;10.68;;;2.20;;
73900;SDS011;62235;52.160;7.526;2023-05-17T04:50:08;5.53;;;1.30;;
73900;SDS011;62235;52.160;7.526;2023-05-17T04:52:34;5.13;;;1.75;;
73900;SDS011;62235;52.160;7.526;2023-05-17T04:55:00;5.50;;;1.10;;
73900;SDS011;62235;52.160;7.526;2023-05-17T04:57:25;7.13;;;1.10;;
73900;SDS011;62235;52.160;7.526;2023-05-17T04:59:51;6.73;;;1.93;;
73900;SDS011;62235;52.160;7.526;2023-05-17T05:02:16;8.07;;;1.15;;
73900;SDS011;62235;52.160;7.526;2023-05-17T05:04:41;5.07;;;1.23;;
73900;SDS011;62235;52.160;7.526;2023-05-17T05:07:07;5.20;;;1.07;;
73900;SDS011;62235;52.160;7.526;2023-05-17T05:09:32;5.67;;;1.47;;
73900;SDS011;62235;52.160;7.526;2023-05-17T05:11:57;4.50;;;1.55;;
73900;SDS011;62235;52.160;7.526;2023-05-17T05:14:23;5.03;;;1.33;;
73900;SDS011;62235;52.160;7.526;2023-05-17T05:16:48;12.50;;;1.10;;
73900;SDS011;62235;52.160;7.526;2023-05-17T05:19:13;6.93;;;0.50;;
73900;SDS011;62235;52.160;7.526;2023-05-17T05:21:39;10.77;;;1.47;;
73900;SDS011;62235;52.160;7.526;2023-05-17T05:24:04;4.87;;;1.80;;
73900;SDS011;62235;52.160;7.526;2023-05-17T05:26:29;7.85;;;1.50;;
73900;SDS011;62235;52.160;7.526;2023-05-17T05:28:55;13.63;;;2.05;;
73900;SDS011;62235;52.160;7.526;2023-05-17T05:31:21;7.82;;;1.33;;
73900;SDS011;62235;52.160;7.526;2023-05-17T05:33:46;7.43;;;2.00;;
73900;SDS011;62235;52.160;7.526;2023-05-17T05:36:11;2.40;;;0.85;;
73900;SDS011;62235;52.160;7.526;2023-05-17T05:38:37;5.47;;;1.38;;
73900;SDS011;62235;52.160;7.526;2023-05-17T05:41:02;12.03;;;1.50;;
73900;SDS011;62235;52.160;7.526;2023-05-17T05:43:27;7.05;;;1.35;;
73900;SDS011;62235;52.160;7.526;2023-05-17T05:45:53;7.40;;;1.30;;
73900;SDS011;62235;52.160;7.526;2023-05-17T05:48:18;5.32;;;1.15;;
73900;SDS011;62235;52.160;7.526;2023-05-17T05:50:44;11.52;;;1.40;;
73900;SDS011;62235;52.160;7.526;2023-05-17T05:53:09;8.10;;;1.90;;
73900;SDS011;62235;52.160;7.526;2023-05-17T05:55:38;2.00;;;0.82;;
73900;SDS011;62235;52.160;7.526;2023-05-17T05:58:05;5.25;;;1.23;;
73900;SDS011;62235;52.160;7.526;2023-05-17T06:00:30;8.15;;;2.33;;
73900;SDS011;62235;52.160;7.526;2023-05-17T06:02:55;7.13;;;1.23;;
73900;SDS011;62235;52.160;7.526;2023-05-17T06:05:21;5.55;;;1.58;;
73900;SDS011;62235;52.160;7.526;2023-05-17T06:07:46;6.50;;;1.67;;
73900;SDS011;62235;52.160;7.526;2023-05-17T06:10:12;6.23;;;1.47;;
73900;SDS011;62235;52.160;7.526;2023-05-17T06:12:37;13.30;;;1.77;;
73900;SDS011;62235;52.160;7.526;2023-05-17T06:15:02;6.63;;;1.20;;
73900;SDS011;62235;52.160;7.526;2023-05-17T06:17:28;3.88;;;1.05;;
73900;SDS011;62235;52.160;7.526;2023-05-17T06:19:53;6.28;;;1.02;;
73900;SDS011;62235;52.160;7.526;2023-05-17T06:22:19;5.65;;;1.30;;
73900;SDS011;62235;52.160;7.526;2023-05-17T06:24:44;9.60;;;1.55;;
73900;SDS011;62235;52.160;7.526;2023-05-17T06:27:09;6.27;;;1.10;;
73900;SDS011;62235;52.160;7.526;2023-05-17T06:29:35;2.90;;;0.60;;
73900;SDS011;62235;52.160;7.526;2023-05-17T06:32:00;4.60;;;1.02;;
73900;SDS011;62235;52.160;7.526;2023-05-17T06:34:25;5.53;;;0.77;;
73900;SDS011;62235;52.160;7.526;2023-05-17T06:36:51;5.50;;;0.80;;
73900;SDS011;62235;52.160;7.526;2023-05-17T06:39:16;4.70;;;0.73;;
73900;SDS011;62235;52.160;7.526;2023-05-17T06:41:42;5.63;;;0.75;;
73900;SDS011;62235;52.160;7.526;2023-05-17T06:44:07;4.43;;;0.70;;
73900;SDS011;62235;52.160;7.526;2023-05-17T06:46:32;4.73;;;0.67;;
73900;SDS011;62235;52.160;7.526;2023-05-17T06:48:58;2.63;;;0.85;;
73900;SDS011;62235;52.160;7.526;2023-05-17T06:51:23;3.92;;;0.93;;
73900;SDS011;62235;52.160;7.526;2023-05-17T06:53:48;2.58;;;0.45;;
73900;SDS011;62235;52.160;7.526;2023-05-17T06:56:14;4.75;;;0.80;;
73900;SDS011;62235;52.160;7.526;2023-05-17T06:58:40;4.68;;;0.70;;
73900;SDS011;62235;52.160;7.526;2023-05-17T07:01:05;7.60;;;1.25;;
73900;SDS011;62235;52.160;7.526;2023-05-17T07:03:30;7.47;;;0.90;;
73900;SDS011;62235;52.160;7.526;2023-05-17T07:05:56;4.07;;;1.20;;
73900;SDS011;62235;52.160;7.526;2023-05-17T07:08:21;3.77;;;0.80;;
73900;SDS011;62235;52.160;7.526;2023-05-17T07:10:46;3.20;;;0.60;;
73900;SDS011;62235;52.160;7.526;2023-05-17T07:13:11;1.77;;;0.63;;
73900;SDS011;62235;52.160;7.526;2023-05-17T07:15:37;3.97;;;0.30;;
73900;SDS011;62235;52.160;7.526;2023-05-17T07:18:03;5.20;;;0.75;;
73900;SDS011;62235;52.160;7.526;2023-05-17T07:20:28;5.68;;;0.93;;
73900;SDS011;62235;52.160;7.526;2023-05-17T07:22:53;3.15;;;0.65;;
73900;SDS011;62235;52.160;7.526;2023-05-17T07:25:20;4.22;;;0.80;;
73900;SDS011;62235;52.160;7.526;2023-05-17T07:27:45;3.08;;;0.57;;
73900;SDS011;62235;52.160;7.526;2023-05-17T07:30:11;3.83;;;0.70;;
73900;SDS011;62235;52.160;7.526;2023-05-17T07:32:36;1.13;;;0.63;;
73900;SDS011;62235;52.160;7.526;2023-05-17T07:35:02;11.93;;;0.90;;
73900;SDS011;62235;52.160;7.526;2023-05-17T07:37:27;3.47;;;0.75;;
73900;SDS011;62235;52.160;7.526;2023-05-17T07:39:52;1.15;;;0.43;;
73900;SDS011;62235;52.160;7.526;2023-05-17T07:42:18;6.77;;;0.90;;
73900;SDS011;62235;52.160;7.526;2023-05-17T07:44:43;6.60;;;0.80;;
73900;SDS011;62235;52.160;7.526;2023-05-17T07:47:08;1.97;;;0.60;;
73900;SDS011;62235;52.160;7.526;2023-05-17T07:49:34;4.57;;;0.90;;
73900;SDS011;62235;52.160;7.526;2023-05-17T07:51:59;4.68;;;0.93;;
73900;SDS011;62235;52.160;7.526;2023-05-17T07:54:26;5.38;;;0.80;;
73900;SDS011;62235;52.160;7.526;2023-05-17T07:56:52;4.07;;;0.85;;
73900;SDS011;62235;52.160;7.526;2023-05-17T07:59:19;2.35;;;0.50;;
73900;SDS011;62235;52.160;7.526;2023-05-17T08:01:45;1.33;;;0.47;;
73900;SDS011;62235;52.160;7.526;2023-05-17T08:04:10;3.00;;;0.90;;
73900;SDS011;62235;52.160;7.526;2023-05-17T08:06:35;2.47;;;1.20;;
73900;SDS011;62235;52.160;7.526;2023-05-17T08:09:01;2.53;;;0.70;;
73900;SDS011;62235;52.160;7.526;2023-05-17T08:11:26;0.93;;;0.52;;
73900;SDS011;62235;52.160;7.526;2023-05-17T08:13:52;4.43;;;0.90;;
73900;SDS011;62235;52.160;7.526;2023-05-17T08:16:17;3.00;;;0.37;;
73900;SDS011;62235;52.160;7.526;2023-05-17T08:18:42;2.70;;;0.80;;
73900;SDS011;62235;52.160;7.526;2023-05-17T08:21:08;3.50;;;1.80;;
73900;SDS011;62235;52.160;7.526;2023-05-17T08:23:33;0.40;;;0.25;;
73900;SDS011;62235;52.160;7.526;2023-05-17T08:25:59;1.02;;;0.30;;
73900;SDS011;62235;52.160;7.526;2023-05-17T08:28:24;6.32;;;0.90;;
73900;SDS011;62235;52.160;7.526;2023-05-17T08:30:50;2.90;;;0.67;;
73900;SDS011;62235;52.160;7.526;2023-05-17T08:33:16;3.47;;;0.63;;
73900;SDS011;62235;52.160;7.526;2023-05-17T08:35:41;1.75;;;0.63;;
73900;SDS011;62235;52.160;7.526;2023-05-17T08:38:06;3.63;;;0.70;;
73900;SDS011;62235;52.160;7.526;2023-05-17T08:40:32;2.92;;;0.73;;
73900;SDS011;62235;52.160;7.526;2023-05-17T08:42:57;2.70;;;0.60;;
73900;SDS011;62235;52.160;7.526;2023-05-17T08:45:24;2.17;;;0.68;;
73900;SDS011;62235;52.160;7.526;2023-05-17T08:47:50;0.57;;;0.52;;
73900;SDS011;62235;52.160;7.526;2023-05-17T08:50:18;3.03;;;0.90;;
73900;SDS011;62235;52.160;7.526;2023-05-17T08:52:44;2.75;;;0.82;;
73900;SDS011;62235;52.160;7.526;2023-05-17T08:55:10;2.78;;;0.60;;
73900;SDS011;62235;52.160;7.526;2023-05-17T08:57:36;1.05;;;0.40;;
73900;SDS011;62235;52.160;7.526;2023-05-17T09:00:05;2.75;;;0.80;;
73900;SDS011;62235;52.160;7.526;2023-05-17T09:02:41;3.17;;;0.60;;
73900;SDS011;62235;52.160;7.526;2023-05-17T09:05:06;3.05;;;0.75;;
73900;SDS011;62235;52.160;7.526;2023-05-17T09:07:32;2.30;;;0.70;;
73900;SDS011;62235;52.160;7.526;2023-05-17T09:09:58;3.40;;;0.55;;
73900;SDS011;62235;52.160;7.526;2023-05-17T09:12:23;1.77;;;0.50;;
73900;SDS011;62235;52.160;7.526;2023-05-17T09:14:48;2.45;;;0.40;;
73900;SDS011;62235;52.160;7.526;2023-05-17T09:17:19;2.08;;;0.82;;
73900;SDS011;62235;52.160;7.526;2023-05-17T09:19:45;7.35;;;0.98;;
73900;SDS011;62235;52.160;7.526;2023-05-17T09:22:21;0.20;;;0.20;;
73900;SDS011;62235;52.160;7.526;2023-05-17T09:24:46;2.92;;;0.68;;
73900;SDS011;62235;52.160;7.526;2023-05-17T09:27:16;4.57;;;0.70;;
73900;SDS011;62235;52.160;7.526;2023-05-17T09:29:45;6.07;;;0.80;;
73900;SDS011;62235;52.160;7.526;2023-05-17T09:32:12;7.60;;;1.40;;
73900;SDS011;62235;52.160;7.526;2023-05-17T09:34:39;0.82;;;0.50;;
73900;SDS011;62235;52.160;7.526;2023-05-17T09:37:05;3.95;;;0.90;;
73900;SDS011;62235;52.160;7.526;2023-05-17T09:39:36;7.10;;;0.85;;
73900;SDS011;62235;52.160;7.526;2023-05-17T09:42:02;5.30;;;0.90;;
73900;SDS011;62235;52.160;7.526;2023-05-17T09:44:28;3.55;;;0.60;;
73900;SDS011;62235;52.160;7.526;2023-05-17T09:46:53;5.50;;;0.97;;
73900;SDS011;62235;52.160;7.526;2023-05-17T09:49:24;2.80;;;0.90;;
73900;SDS011;62235;52.160;7.526;2023-05-17T09:51:50;3.22;;;0.75;;
73900;SDS011;62235;52.160;7.526;2023-05-17T09:54:16;7.55;;;1.02;;
73900;SDS011;62235;52.160;7.526;2023-05-17T09:56:44;1.88;;;0.70;;
73900;SDS011;62235;52.160;7.526;2023-05-17T09:59:17;6.18;;;1.08;;
73900;SDS011;62235;52.160;7.526;2023-05-17T10:01:44;3.38;;;0.68;;
73900;SDS011;62235;52.160;7.526;2023-05-17T10:04:09;3.05;;;0.68;;
73900;SDS011;62235;52.160;7.526;2023-05-17T10:06:38;3.25;;;0.60;;
73900;SDS011;62235;52.160;7.526;2023-05-17T10:09:09;2.72;;;0.65;;
73900;SDS011;62235;52.160;7.526;2023-05-17T10:11:37;2.85;;;0.88;;
73900;SDS011;62235;52.160;7.526;2023-05-17T10:14:06;3.85;;;0.80;;
73900;SDS011;62235;52.160;7.526;2023-05-17T10:16:36;6.32;;;1.10;;
73900;SDS011;62235;52.160;7.526;2023-05-17T10:19:01;4.35;;;1.15;;
73900;SDS011;62235;52.160;7.526;2023-05-17T10:21:28;4.93;;;0.70;;
73900;SDS011;62235;52.160;7.526;2023-05-17T10:23:55;6.03;;;1.00;;
73900;SDS011;62235;52.160;7.526;2023-05-17T10:26:22;5.07;;;0.85;;
73900;SDS011;62235;52.160;7.526;2023-05-17T10:28:48;1.73;;;0.68;;
73900;SDS011;62235;52.160;7.526;2023-05-17T10:31:17;6.05;;;0.82;;
73900;SDS011;62235;52.160;7.526;2023-05-17T10:33:44;10.35;;;0.90;;
73900;SDS011;62235;52.160;7.526;2023-05-17T10:36:12;2.35;;;0.65;;
73900;SDS011;62235;52.160;7.526;2023-05-17T10:38:38;1.85;;;0.40;;
73900;SDS011;62235;52.160;7.526;2023-05-17T10:41:03;3.73;;;0.60;;
73900;SDS011;62235;52.160;7.526;2023-05-17T10:43:29;5.95;;;1.50;;
73900;SDS011;62235;52.160;7.526;2023-05-17T10:45:55;5.43;;;1.20;;
73900;SDS011;62235;52.160;7.526;2023-05-17T10:48:20;4.65;;;0.93;;
73900;SDS011;62235;52.160;7.526;2023-05-17T10:50:46;9.30;;;1.00;;
73900;SDS011;62235;52.160;7.526;2023-05-17T10:53:12;1.65;;;0.70;;
73900;SDS011;62235;52.160;7.526;2023-05-17T10:55:38;4.20;;;1.00;;
73900;SDS011;62235;52.160;7.526;2023-05-17T10:58:11;4.80;;;1.10;;
73900;SDS011;62235;52.160;7.526;2023-05-17T11:00:42;6.28;;;1.27;;
73900;SDS011;62235;52.160;7.526;2023-05-17T11:03:13;4.28;;;0.73;;
73900;SDS011;62235;52.160;7.526;2023-05-17T11:05:41;6.68;;;1.33;;
73900;SDS011;62235;52.160;7.526;2023-05-17T11:08:16;4.32;;;1.00;;
73900;SDS011;62235;52.160;7.526;2023-05-17T11:13:33;5.28;;;1.02;;
73900;SDS011;62235;52.160;7.526;2023-05-17T11:16:02;4.97;;;0.98;;
73900;SDS011;62235;52.160;7.526;2023-05-17T11:18:44;3.63;;;0.77;;
73900;SDS011;62235;52.160;7.526;2023-05-17T11:21:20;6.88;;;1.27;;
73900;SDS011;62235;52.160;7.526;2023-05-17T11:23:46;9.63;;;1.30;;
73900;SDS011;62235;52.160;7.526;2023-05-17T11:26:18;2.80;;;0.60;;
73900;SDS011;62235;52.160;7.526;2023-05-17T11:28:46;6.35;;;1.70;;
73900;SDS011;62235;52.160;7.526;2023-05-17T11:31:11;3.85;;;0.93;;
73900;SDS011;62235;52.160;7.526;2023-05-17T11:33:43;3.75;;;0.75;;
73900;SDS011;62235;52.160;7.526;2023-05-17T11:36:19;3.50;;;1.30;;
73900;SDS011;62235;52.160;7.526;2023-05-17T11:38:47;2.95;;;0.70;;
73900;SDS011;62235;52.160;7.526;2023-05-17T11:41:33;3.95;;;1.10;;
73900;SDS011;62235;52.160;7.526;2023-05-17T11:44:01;5.78;;;1.20;;
73900;SDS011;62235;52.160;7.526;2023-05-17T11:46:26;5.07;;;1.10;;
73900;SDS011;62235;52.160;7.526;2023-05-17T11:48:52;3.95;;;1.02;;
73900;SDS011;62235;52.160;7.526;2023-05-17T11:51:18;7.88;;;1.10;;
73900;SDS011;62235;52.160;7.526;2023-05-17T11:53:44;1.30;;;0.50;;
73900;SDS011;62235;52.160;7.526;2023-05-17T11:56:11;4.15;;;1.20;;
73900;SDS011;62235;52.160;7.526;2023-05-17T11:58:37;7.63;;;1.73;;
73900;SDS011;62235;52.160;7.526;2023-05-17T12:01:02;5.30;;;1.17;;
73900;SDS011;62235;52.160;7.526;2023-05-17T12:03:29;3.45;;;1.08;;
73900;SDS011;62235;52.160;7.526;2023-05-17T12:08:44;4.82;;;1.25;;
73900;SDS011;62235;52.160;7.526;2023-05-17T12:11:11;1.58;;;0.57;;
73900;SDS011;62235;52.160;7.526;2023-05-17T12:13:38;5.03;;;0.98;;
73900;SDS011;62235;52.160;7.526;2023-05-17T12:16:10;7.28;;;1.50;;
73900;SDS011;62235;52.160;7.526;2023-05-17T12:18:40;4.88;;;1.15;;
73900;SDS011;62235;52.160;7.526;2023-05-17T12:21:07;3.40;;;0.93;;
73900;SDS011;62235;52.160;7.526;2023-05-17T12:23:35;8.25;;;1.77;;
73900;SDS011;62235;52.160;7.526;2023-05-17T12:28:31;5.22;;;1.15;;
73900;SDS011;62235;52.160;7.526;2023-05-17T12:30:57;9.63;;;1.83;;
73900;SDS011;62235;52.160;7.526;2023-05-17T12:33:25;2.58;;;0.50;;
73900;SDS011;62235;52.160;7.526;2023-05-17T12:35:50;2.58;;;0.68;;
73900;SDS011;62235;52.160;7.526;2023-05-17T12:38:16;6.38;;;1.00;;
73900;SDS011;62235;52.160;7.526;2023-05-17T12:40:42;6.93;;;1.45;;
73900;SDS011;62235;52.160;7.526;2023-05-17T12:43:08;2.65;;;0.85;;
73900;SDS011;62235;52.160;7.526;2023-05-17T12:45:33;4.50;;;1.17;;
73900;SDS011;62235;52.160;7.526;2023-05-17T12:47:59;3.27;;;0.53;;
73900;SDS011;62235;52.160;7.526;2023-05-17T12:50:30;5.78;;;1.00;;
73900;SDS011;62235;52.160;7.526;2023-05-17T12:52:56;1.52;;;0.60;;
73900;SDS011;62235;52.160;7.526;2023-05-17T12:55:22;11.45;;;1.50;;
73900;SDS011;62235;52.160;7.526;2023-05-17T12:57:51;2.38;;;0.68;;
73900;SDS011;62235;52.160;7.526;2023-05-17T13:00:17;4.55;;;1.08;;
73900;SDS011;62235;52.160;7.526;2023-05-17T13:02:43;3.97;;;0.82;;
73900;SDS011;62235;52.160;7.526;2023-05-17T13:05:18;3.70;;;1.02;;
73900;SDS011;62235;52.160;7.526;2023-05-17T13:07:45;7.50;;;1.20;;
73900;SDS011;62235;52.160;7.526;2023-05-17T13:12:57;3.33;;;0.65;;
73900;SDS011;62235;52.160;7.526;2023-05-17T13:15:29;3.30;;;0.60;;
73900;SDS011;62235;52.160;7.526;2023-05-17T13:17:56;4.72;;;0.90;;
73900;SDS011;62235;52.160;7.526;2023-05-17T13:20:22;5.07;;;0.82;;
73900;SDS011;62235;52.160;7.526;2023-05-17T13:22:47;3.20;;;0.98;;
73900;SDS011;62235;52.160;7.526;2023-05-17T13:25:13;2.15;;;0.55;;
73900;SDS011;62235;52.160;7.526;2023-05-17T13:27:39;4.85;;;1.20;;
73900;SDS011;62235;52.160;7.526;2023-05-17T13:30:09;8.38;;;1.10;;
73900;SDS011;62235;52.160;7.526;2023-05-17T13:32:35;4.45;;;1.13;;
73900;SDS011;62235;52.160;7.526;2023-05-17T13:35:01;3.13;;;1.15;;
73900;SDS011;62235;52.160;7.526;2023-05-17T13:37:26;1.90;;;0.93;;
73900;SDS011;62235;52.160;7.526;2023-05-17T13:39:51;3.00;;;1.13;;
73900;SDS011;62235;52.160;7.526;2023-05-17T13:42:19;4.00;;;1.13;;
73900;SDS011;62235;52.160;7.526;2023-05-17T13:44:44;7.17;;;1.13;;
73900;SDS011;62235;52.160;7.526;2023-05-17T13:47:09;4.30;;;1.00;;
73900;SDS011;62235;52.160;7.526;2023-05-17T13:49:35;2.53;;;1.10;;
73900;SDS011;62235;52.160;7.526;2023-05-17T13:52:01;8.45;;;1.10;;
73900;SDS011;62235;52.160;7.526;2023-05-17T13:54:27;3.67;;;1.10;;
73900;SDS011;62235;52.160;7.526;2023-05-17T13:56:52;3.40;;;1.00;;
73900;SDS011;62235;52.160;7.526;2023-05-17T13:59:19;6.10;;;1.05;;
73900;SDS011;62235;52.160;7.526;2023-05-17T14:01:45;2.78;;;1.23;;
73900;SDS011;62235;52.160;7.526;2023-05-17T14:04:10;5.25;;;1.17;;
73900;SDS011;62235;52.160;7.526;2023-05-17T14:06:37;5.90;;;1.38;;
73900;SDS011;62235;52.160;7.526;2023-05-17T14:09:02;5.25;;;1.02;;
73900;SDS011;62235;52.160;7.526;2023-05-17T14:11:28;3.28;;;1.10;;
73900;SDS011;62235;52.160;7.526;2023-05-17T14:13:53;4.03;;;0.97;;
73900;SDS011;62235;52.160;7.526;2023-05-17T14:16:18;3.03;;;0.90;;
73900;SDS011;62235;52.160;7.526;2023-05-17T14:18:46;3.15;;;0.95;;
73900;SDS011;62235;52.160;7.526;2023-05-17T14:21:11;4.68;;;0.70;;
73900;SDS011;62235;52.160;7.526;2023-05-17T14:23:37;2.87;;;0.73;;
73900;SDS011;62235;52.160;7.526;2023-05-17T14:26:02;7.93;;;1.87;;
73900;SDS011;62235;52.160;7.526;2023-05-17T14:28:31;1.58;;;0.60;;
73900;SDS011;62235;52.160;7.526;2023-05-17T14:30:57;2.33;;;0.77;;
73900;SDS011;62235;52.160;7.526;2023-05-17T14:33:22;3.42;;;0.85;;
73900;SDS011;62235;52.160;7.526;2023-05-17T14:35:47;2.00;;;0.73;;
73900;SDS011;62235;52.160;7.526;2023-05-17T14:38:13;7.82;;;1.40;;
73900;SDS011;62235;52.160;7.526;2023-05-17T14:40:38;4.13;;;1.30;;
73900;SDS011;62235;52.160;7.526;2023-05-17T14:43:03;5.50;;;1.38;;
73900;SDS011;62235;52.160;7.526;2023-05-17T14:45:29;5.05;;;1.17;;
73900;SDS011;62235;52.160;7.526;2023-05-17T14:47:54;6.17;;;1.20;;
73900;SDS011;62235;52.160;7.526;2023-05-17T14:50:19;3.70;;;1.20;;
73900;SDS011;62235;52.160;7.526;2023-05-17T14:52:45;3.33;;;0.88;;
73900;SDS011;62235;52.160;7.526;2023-05-17T14:55:10;10.40;;;1.20;;
73900;SDS011;62235;52.160;7.526;2023-05-17T14:57:36;3.55;;;1.20;;
73900;SDS011;62235;52.160;7.526;2023-05-17T15:00:01;3.05;;;0.90;;
73900;SDS011;62235;52.160;7.526;2023-05-17T15:02:27;4.70;;;1.33;;
73900;SDS011;62235;52.160;7.526;2023-05-17T15:04:52;4.22;;;1.00;;